Canefield Airport

Partly cloudy with adjacent showers
30oC (86oF)

Partly cloudy with adjacent showers


Winds: North north westerly @ 04kts / 07kmph

Humidity: 72%

Barometric Pressure: 1012 mb

Accumulated Rainfall for August: 138.8 mm

Updated: 17:00 local time (21:00 UTC)

Douglas-Charles Airport

Fair
25oC (77oF)

Fair


Winds: Westerly @ 02kts / 04km/h

Humidity: 99%

Barometric Pressure: 1015 mb

Accumulated Rainfall for August: 103.4 mm

Updated: 20:00 local time (00:00 UTC)

Satellite Imagery

Satellite Imagery
Click image for larger view. (Source: National Hurricane Center).

Aviation Routine Report (METAR)

Douglas-Charles: METAR TDPD 160000Z 27002KT 9999 FEW017 25/25 Q1015=
Canefield: METAR TDCF 152100Z 33004KT 9999 FEW018 30/24 Q1012=